Parker, WA (98939)

11:47 AM PDT on April 26, 2017 (GMT -0700)
Union Gap | | Change Station

Elev 987 ft 46.56 °N, 120.48 °W | Updated 14 minutes ago

Mostly Cloudy
Mostly Cloudy
61.5 °F
Feels Like 61.5 °F
N
1.0
Wind Variable Wind from West
Gusts 6.0 mph

Today
High -- | Low -- °F
--% Chance of Precip.
Yesterday
High -- | Low -- °F
Precip. -- in
Pressure 29.76 in
Visibility 10.0 miles
Clouds Few 7000 ft
Scattered Clouds 9500 ft
Dew Point 44 °F
Humidity 52%
Rainfall Not available.
Snow Depth Not available.
5:55 AM 8:05 PM
New Moon, 0% visible
METAR KYKM 261753Z 09003KT 10SM FEW070 SCT095 13/05 A2976 RMK AO2 RAE25 SLP078 P0000 60000 T01280050 10133 20056 56007
Pressure 29.76 in
Visibility 10.0 miles
Clouds Few 7000 ft
Scattered Clouds 9500 ft
Dew Point 44 °F
Humidity 52%
Rainfall Not available.
Snow Depth Not available.
5:55 AM 8:05 PM
New Moon, 0% visible
METAR KYKM 261753Z 09003KT 10SM FEW070 SCT095 13/05 A2976 RMK AO2 RAE25 SLP078 P0000 60000 T01280050 10133 20056 56007

Get Severe Weather Alerts

Thanks for signing up!

Be on the lookout for a verification email in your inbox.

You'll start receiving the daily forecast at 8 AM.

×

10-Day Weather Forecast

Almanac

Astronomy

Apr. 26, 2017 Rise Set
Actual Time
Civil Twilight
Nautical Twilight
Astronomical Twilight
Moon
Length of Visible Light
Length of Day
Tomorrow will be .
, % of the Moon is Illuminated

Today's Extremes

State Highs State Lows

Community

WunderPhotos

WunderBlog® & News

Nearby

Air Quality

  Air Quality AQ Index Pollutant
Not available.

Snow Depth

Station Depth Elevation

Earthquake Activity

City Distance Mag. Time & Date
Minimum magnitude displayed is 2.5.

Coastal Water Temperatures

Place Temperature

Stations

Nearby Weather Stations

Station Location Temp. Windchill Dew Point Humidity Wind Precip. Elev Updated Type
                   

Watches & Warnings

There are currently no watches in effect.